sensor_id;sensor_type;location;lat;lon;timestamp;noise_LAeq;noise_LA_min;noise_LA_max;noise_LA01;noise_LA95
66335;Laerm;53138;51.496;6.410;2023-08-31T00:00:10;33.72;31.58;37.17;;
66335;Laerm;53138;51.496;6.410;2023-08-31T00:00:21;33.58;31.37;36.96;;
66335;Laerm;53138;51.496;6.410;2023-08-31T00:00:31;33.15;30.89;37.02;;
66335;Laerm;53138;51.496;6.410;2023-08-31T00:00:43;32.90;30.86;35.20;;
66335;Laerm;53138;51.496;6.410;2023-08-31T00:00:53;33.00;31.19;35.80;;
66335;Laerm;53138;51.496;6.410;2023-08-31T00:01:03;33.75;31.00;45.79;;
66335;Laerm;53138;51.496;6.410;2023-08-31T00:01:14;36.24;31.11;42.61;;
66335;Laerm;53138;51.496;6.410;2023-08-31T00:01:24;36.86;32.73;40.84;;
66335;Laerm;53138;51.496;6.410;2023-08-31T00:01:34;35.81;32.55;39.13;;
66335;Laerm;53138;51.496;6.410;2023-08-31T00:01:44;33.75;31.83;37.23;;
66335;Laerm;53138;51.496;6.410;2023-08-31T00:01:55;35.54;32.56;39.30;;
66335;Laerm;53138;51.496;6.410;2023-08-31T00:02:05;33.74;30.96;36.46;;
66335;Laerm;53138;51.496;6.410;2023-08-31T00:02:16;33.07;30.87;38.42;;
66335;Laerm;53138;51.496;6.410;2023-08-31T00:02:26;32.67;31.09;34.52;;
66335;Laerm;53138;51.496;6.410;2023-08-31T00:02:36;32.76;31.16;34.26;;
66335;Laerm;53138;51.496;6.410;2023-08-31T00:02:46;32.46;31.08;34.24;;
66335;Laerm;53138;51.496;6.410;2023-08-31T00:02:57;32.87;31.55;34.34;;
66335;Laerm;53138;51.496;6.410;2023-08-31T00:03:07;32.76;31.02;34.47;;
66335;Laerm;53138;51.496;6.410;2023-08-31T00:03:20;33.63;32.17;35.54;;
66335;Laerm;53138;51.496;6.410;2023-08-31T00:03:30;32.89;31.39;34.51;;
66335;Laerm;53138;51.496;6.410;2023-08-31T00:03:41;32.81;31.16;34.72;;
66335;Laerm;53138;51.496;6.410;2023-08-31T00:03:51;34.03;30.70;37.13;;
66335;Laerm;53138;51.496;6.410;2023-08-31T00:04:01;33.46;31.34;35.20;;
66335;Laerm;53138;51.496;6.410;2023-08-31T00:04:12;33.37;31.30;36.09;;
66335;Laerm;53138;51.496;6.410;2023-08-31T00:04:24;33.61;31.15;37.28;;
66335;Laerm;53138;51.496;6.410;2023-08-31T00:04:34;34.59;31.77;38.91;;
66335;Laerm;53138;51.496;6.410;2023-08-31T00:04:45;33.54;31.48;37.17;;
66335;Laerm;53138;51.496;6.410;2023-08-31T00:04:55;33.18;31.24;35.63;;
66335;Laerm;53138;51.496;6.410;2023-08-31T00:05:05;33.26;31.18;37.59;;
66335;Laerm;53138;51.496;6.410;2023-08-31T00:05:16;33.14;30.84;37.36;;
66335;Laerm;53138;51.496;6.410;2023-08-31T00:05:26;32.95;31.01;34.69;;
66335;Laerm;53138;51.496;6.410;2023-08-31T00:05:41;33.51;31.32;36.07;;
66335;Laerm;53138;51.496;6.410;2023-08-31T00:05:52;33.32;30.86;39.89;;
66335;Laerm;53138;51.496;6.410;2023-08-31T00:06:02;33.07;31.09;35.93;;
66335;Laerm;53138;51.496;6.410;2023-08-31T00:06:13;33.99;30.62;47.89;;
66335;Laerm;53138;51.496;6.410;2023-08-31T00:06:24;32.41;30.92;34.17;;
66335;Laerm;53138;51.496;6.410;2023-08-31T00:06:34;32.24;30.82;33.70;;
66335;Laerm;53138;51.496;6.410;2023-08-31T00:06:44;32.42;30.53;34.21;;
66335;Laerm;53138;51.496;6.410;2023-08-31T00:06:56;32.01;30.39;33.67;;
66335;Laerm;53138;51.496;6.410;2023-08-31T00:07:07;31.88;30.39;34.25;;
66335;Laerm;53138;51.496;6.410;2023-08-31T00:07:17;31.84;30.69;33.23;;
66335;Laerm;53138;51.496;6.410;2023-08-31T00:07:27;31.67;30.17;33.34;;
66335;Laerm;53138;51.496;6.410;2023-08-31T00:07:37;31.97;30.32;34.22;;
66335;Laerm;53138;51.496;6.410;2023-08-31T00:07:47;32.11;30.08;34.25;;
66335;Laerm;53138;51.496;6.410;2023-08-31T00:07:58;32.17;30.65;34.43;;
66335;Laerm;53138;51.496;6.410;2023-08-31T00:08:08;31.87;30.28;33.26;;
66335;Laerm;53138;51.496;6.410;2023-08-31T00:08:18;31.63;30.11;33.14;;
66335;Laerm;53138;51.496;6.410;2023-08-31T00:08:32;31.76;30.46;33.97;;
66335;Laerm;53138;51.496;6.410;2023-08-31T00:08:42;32.47;30.95;34.07;;
66335;Laerm;53138;51.496;6.410;2023-08-31T00:08:53;32.30;30.74;34.13;;
66335;Laerm;53138;51.496;6.410;2023-08-31T00:09:03;32.87;30.30;39.71;;
66335;Laerm;53138;51.496;6.410;2023-08-31T00:09:15;37.36;32.67;48.57;;
66335;Laerm;53138;51.496;6.410;2023-08-31T00:09:25;37.89;32.05;46.77;;
66335;Laerm;53138;51.496;6.410;2023-08-31T00:09:35;38.62;31.98;48.18;;
66335;Laerm;53138;51.496;6.410;2023-08-31T00:09:46;35.82;31.37;42.27;;
66335;Laerm;53138;51.496;6.410;2023-08-31T00:09:57;33.53;31.06;36.42;;
66335;Laerm;53138;51.496;6.410;2023-08-31T00:10:08;33.30;30.86;36.98;;
66335;Laerm;53138;51.496;6.410;2023-08-31T00:10:21;33.22;30.72;39.34;;
66335;Laerm;53138;51.496;6.410;2023-08-31T00:10:32;33.23;31.17;39.32;;
66335;Laerm;53138;51.496;6.410;2023-08-31T00:10:42;32.23;30.39;34.16;;
66335;Laerm;53138;51.496;6.410;2023-08-31T00:10:59;31.73;30.18;33.50;;
66335;Laerm;53138;51.496;6.410;2023-08-31T00:11:10;31.75;30.14;33.44;;
66335;Laerm;53138;51.496;6.410;2023-08-31T00:11:20;31.89;30.14;34.06;;
66335;Laerm;53138;51.496;6.410;2023-08-31T00:11:31;32.07;30.47;33.74;;
66335;Laerm;53138;51.496;6.410;2023-08-31T00:11:41;31.89;30.23;33.92;;
66335;Laerm;53138;51.496;6.410;2023-08-31T00:11:51;31.95;30.55;34.33;;
66335;Laerm;53138;51.496;6.410;2023-08-31T00:12:02;32.13;30.65;38.19;;
66335;Laerm;53138;51.496;6.410;2023-08-31T00:12:13;39.57;30.59;58.28;;
66335;Laerm;53138;51.496;6.410;2023-08-31T00:12:23;32.42;30.66;38.06;;
66335;Laerm;53138;51.496;6.410;2023-08-31T00:12:34;31.94;30.07;33.43;;
66335;Laerm;53138;51.496;6.410;2023-08-31T00:12:45;32.07;30.64;33.79;;
66335;Laerm;53138;51.496;6.410;2023-08-31T00:12:55;32.09;30.71;33.84;;
66335;Laerm;53138;51.496;6.410;2023-08-31T00:13:05;31.94;30.36;33.23;;
66335;Laerm;53138;51.496;6.410;2023-08-31T00:13:18;31.64;30.09;33.05;;
66335;Laerm;53138;51.496;6.410;2023-08-31T00:13:29;31.90;30.35;38.24;;
66335;Laerm;53138;51.496;6.410;2023-08-31T00:13:39;32.25;30.82;37.55;;
66335;Laerm;53138;51.496;6.410;2023-08-31T00:13:49;32.24;30.65;36.20;;
66335;Laerm;53138;51.496;6.410;2023-08-31T00:14:00;32.16;30.44;39.55;;
66335;Laerm;53138;51.496;6.410;2023-08-31T00:14:10;32.65;30.79;39.85;;
66335;Laerm;53138;51.496;6.410;2023-08-31T00:14:21;32.64;30.37;38.51;;
66335;Laerm;53138;51.496;6.410;2023-08-31T00:14:32;32.92;30.88;40.45;;
66335;Laerm;53138;51.496;6.410;2023-08-31T00:14:42;32.64;29.98;38.89;;
66335;Laerm;53138;51.496;6.410;2023-08-31T00:14:52;32.04;30.46;38.34;;
66335;Laerm;53138;51.496;6.410;2023-08-31T00:15:03;32.42;30.43;37.43;;
66335;Laerm;53138;51.496;6.410;2023-08-31T00:15:14;32.27;30.67;37.02;;
66335;Laerm;53138;51.496;6.410;2023-08-31T00:15:25;32.30;30.72;34.32;;
66335;Laerm;53138;51.496;6.410;2023-08-31T00:15:35;32.78;30.97;38.73;;
66335;Laerm;53138;51.496;6.410;2023-08-31T00:15:46;32.44;30.90;35.32;;
66335;Laerm;53138;51.496;6.410;2023-08-31T00:15:57;32.74;31.23;34.82;;
66335;Laerm;53138;51.496;6.410;2023-08-31T00:16:07;32.74;30.89;34.20;;
66335;Laerm;53138;51.496;6.410;2023-08-31T00:16:23;33.13;30.38;36.20;;
66335;Laerm;53138;51.496;6.410;2023-08-31T00:16:33;32.50;31.07;34.39;;
66335;Laerm;53138;51.496;6.410;2023-08-31T00:16:44;32.48;30.82;34.81;;
66335;Laerm;53138;51.496;6.410;2023-08-31T00:16:56;32.33;30.70;34.07;;
66335;Laerm;53138;51.496;6.410;2023-08-31T00:17:07;32.16;30.40;34.21;;
66335;Laerm;53138;51.496;6.410;2023-08-31T00:17:18;32.67;31.01;34.53;;
66335;Laerm;53138;51.496;6.410;2023-08-31T00:17:29;33.10;31.70;35.37;;
66335;Laerm;53138;51.496;6.410;2023-08-31T00:17:39;33.04;31.46;35.33;;
66335;Laerm;53138;51.496;6.410;2023-08-31T00:17:49;33.00;30.78;34.66;;
66335;Laerm;53138;51.496;6.410;2023-08-31T00:18:00;33.92;31.31;36.97;;
66335;Laerm;53138;51.496;6.410;2023-08-31T00:18:10;34.27;32.03;36.07;;
66335;Laerm;53138;51.496;6.410;2023-08-31T00:18:23;36.25;33.44;40.51;;
66335;Laerm;53138;51.496;6.410;2023-08-31T00:18:34;38.94;34.61;42.45;;
66335;Laerm;53138;51.496;6.410;2023-08-31T00:18:46;42.28;34.56;52.81;;
66335;Laerm;53138;51.496;6.410;2023-08-31T00:18:56;42.30;34.48;53.48;;
66335;Laerm;53138;51.496;6.410;2023-08-31T00:19:07;35.17;32.58;38.78;;
66335;Laerm;53138;51.496;6.410;2023-08-31T00:19:17;33.56;31.89;35.09;;
66335;Laerm;53138;51.496;6.410;2023-08-31T00:19:27;38.42;32.28;44.31;;
66335;Laerm;53138;51.496;6.410;2023-08-31T00:19:37;34.49;31.93;37.74;;
66335;Laerm;53138;51.496;6.410;2023-08-31T00:19:48;33.45;31.49;36.23;;
66335;Laerm;53138;51.496;6.410;2023-08-31T00:19:58;32.73;31.06;38.16;;
66335;Laerm;53138;51.496;6.410;2023-08-31T00:20:08;32.76;31.10;34.57;;
66335;Laerm;53138;51.496;6.410;2023-08-31T00:20:21;32.80;30.97;35.02;;
66335;Laerm;53138;51.496;6.410;2023-08-31T00:20:32;32.66;30.93;34.72;;
66335;Laerm;53138;51.496;6.410;2023-08-31T00:20:43;32.70;30.71;35.07;;
66335;Laerm;53138;51.496;6.410;2023-08-31T00:20:53;32.60;31.17;34.55;;
66335;Laerm;53138;51.496;6.410;2023-08-31T00:21:04;32.65;30.81;38.24;;
66335;Laerm;53138;51.496;6.410;2023-08-31T00:21:14;33.18;31.52;34.79;;
66335;Laerm;53138;51.496;6.410;2023-08-31T00:21:24;33.08;30.88;36.11;;
66335;Laerm;53138;51.496;6.410;2023-08-31T00:21:35;33.28;31.83;35.63;;
66335;Laerm;53138;51.496;6.410;2023-08-31T00:21:45;32.59;30.77;34.33;;
66335;Laerm;53138;51.496;6.410;2023-08-31T00:21:55;32.49;30.71;37.35;;
66335;Laerm;53138;51.496;6.410;2023-08-31T00:22:05;32.81;31.44;34.63;;
66335;Laerm;53138;51.496;6.410;2023-08-31T00:22:16;33.87;32.32;35.81;;
66335;Laerm;53138;51.496;6.410;2023-08-31T00:22:26;32.64;31.03;34.67;;
66335;Laerm;53138;51.496;6.410;2023-08-31T00:22:36;32.53;30.80;34.79;;
66335;Laerm;53138;51.496;6.410;2023-08-31T00:22:46;32.99;31.20;35.03;;
66335;Laerm;53138;51.496;6.410;2023-08-31T00:22:57;33.50;31.54;35.92;;
66335;Laerm;53138;51.496;6.410;2023-08-31T00:23:08;34.41;31.59;39.52;;
66335;Laerm;53138;51.496;6.410;2023-08-31T00:23:18;34.75;32.51;39.39;;
66335;Laerm;53138;51.496;6.410;2023-08-31T00:23:31;34.19;31.51;38.15;;
66335;Laerm;53138;51.496;6.410;2023-08-31T00:23:41;33.84;31.81;36.33;;
66335;Laerm;53138;51.496;6.410;2023-08-31T00:23:52;33.59;31.26;35.44;;
66335;Laerm;53138;51.496;6.410;2023-08-31T00:24:02;34.02;32.02;36.50;;
66335;Laerm;53138;51.496;6.410;2023-08-31T00:24:12;39.19;33.38;45.25;;
66335;Laerm;53138;51.496;6.410;2023-08-31T00:24:22;42.58;36.82;46.77;;
66335;Laerm;53138;51.496;6.410;2023-08-31T00:24:38;40.73;33.17;48.96;;
66335;Laerm;53138;51.496;6.410;2023-08-31T00:24:48;33.14;31.07;35.72;;
66335;Laerm;53138;51.496;6.410;2023-08-31T00:24:58;32.64;30.94;37.61;;
66335;Laerm;53138;51.496;6.410;2023-08-31T00:25:08;32.52;31.06;36.68;;
66335;Laerm;53138;51.496;6.410;2023-08-31T00:25:19;32.63;31.29;34.27;;
66335;Laerm;53138;51.496;6.410;2023-08-31T00:25:29;32.68;31.38;34.49;;
66335;Laerm;53138;51.496;6.410;2023-08-31T00:25:39;32.51;30.96;34.37;;
66335;Laerm;53138;51.496;6.410;2023-08-31T00:25:50;32.84;31.25;34.48;;
66335;Laerm;53138;51.496;6.410;2023-08-31T00:26:02;33.14;31.20;35.09;;
66335;Laerm;53138;51.496;6.410;2023-08-31T00:26:13;32.80;30.98;35.18;;
66335;Laerm;53138;51.496;6.410;2023-08-31T00:26:23;35.37;31.37;51.93;;
66335;Laerm;53138;51.496;6.410;2023-08-31T00:26:33;33.39;31.22;42.35;;
66335;Laerm;53138;51.496;6.410;2023-08-31T00:26:44;33.24;31.08;44.39;;
66335;Laerm;53138;51.496;6.410;2023-08-31T00:26:55;32.68;30.72;36.00;;
66335;Laerm;53138;51.496;6.410;2023-08-31T00:27:05;32.75;30.93;34.44;;
66335;Laerm;53138;51.496;6.410;2023-08-31T00:27:16;32.90;30.84;34.52;;
66335;Laerm;53138;51.496;6.410;2023-08-31T00:27:27;33.07;31.44;35.18;;
66335;Laerm;53138;51.496;6.410;2023-08-31T00:27:40;32.79;31.15;34.21;;
66335;Laerm;53138;51.496;6.410;2023-08-31T00:27:50;32.61;30.86;36.04;;
66335;Laerm;53138;51.496;6.410;2023-08-31T00:28:02;33.36;31.09;43.21;;
66335;Laerm;53138;51.496;6.410;2023-08-31T00:28:15;32.81;31.13;35.26;;
66335;Laerm;53138;51.496;6.410;2023-08-31T00:28:28;33.04;31.17;34.81;;
66335;Laerm;53138;51.496;6.410;2023-08-31T00:28:38;34.15;32.25;35.79;;
66335;Laerm;53138;51.496;6.410;2023-08-31T00:28:50;33.33;31.18;38.59;;
66335;Laerm;53138;51.496;6.410;2023-08-31T00:29:00;32.65;30.82;34.56;;
66335;Laerm;53138;51.496;6.410;2023-08-31T00:29:10;32.72;30.70;35.32;;
66335;Laerm;53138;51.496;6.410;2023-08-31T00:29:21;32.74;31.03;33.92;;
66335;Laerm;53138;51.496;6.410;2023-08-31T00:29:31;33.41;31.29;36.26;;
66335;Laerm;53138;51.496;6.410;2023-08-31T00:29:41;33.41;31.68;37.09;;
66335;Laerm;53138;51.496;6.410;2023-08-31T00:29:53;34.01;31.73;36.30;;
66335;Laerm;53138;51.496;6.410;2023-08-31T00:30:05;34.19;31.90;46.84;;
66335;Laerm;53138;51.496;6.410;2023-08-31T00:30:18;33.61;31.72;35.84;;
66335;Laerm;53138;51.496;6.410;2023-08-31T00:30:28;33.48;31.27;35.60;;
66335;Laerm;53138;51.496;6.410;2023-08-31T00:30:39;33.45;31.02;47.66;;
66335;Laerm;53138;51.496;6.410;2023-08-31T00:30:49;33.97;30.98;49.35;;
66335;Laerm;53138;51.496;6.410;2023-08-31T00:31:00;34.58;31.37;49.50;;
66335;Laerm;53138;51.496;6.410;2023-08-31T00:31:13;33.74;31.05;48.67;;
66335;Laerm;53138;51.496;6.410;2023-08-31T00:31:24;34.04;31.77;45.59;;
66335;Laerm;53138;51.496;6.410;2023-08-31T00:31:34;33.35;31.81;35.14;;
66335;Laerm;53138;51.496;6.410;2023-08-31T00:31:44;34.42;32.17;48.39;;
66335;Laerm;53138;51.496;6.410;2023-08-31T00:31:54;34.21;31.77;46.11;;
66335;Laerm;53138;51.496;6.410;2023-08-31T00:32:05;33.68;31.74;36.34;;
66335;Laerm;53138;51.496;6.410;2023-08-31T00:32:15;33.77;31.73;44.37;;
66335;Laerm;53138;51.496;6.410;2023-08-31T00:32:25;33.25;31.43;40.60;;
66335;Laerm;53138;51.496;6.410;2023-08-31T00:32:35;35.16;31.19;53.30;;
66335;Laerm;53138;51.496;6.410;2023-08-31T00:32:46;33.01;31.49;34.75;;
66335;Laerm;53138;51.496;6.410;2023-08-31T00:32:57;32.79;31.11;35.02;;
66335;Laerm;53138;51.496;6.410;2023-08-31T00:33:09;32.55;30.89;34.69;;
66335;Laerm;53138;51.496;6.410;2023-08-31T00:33:20;33.59;31.21;45.43;;
66335;Laerm;53138;51.496;6.410;2023-08-31T00:33:30;33.19;31.79;34.68;;
66335;Laerm;53138;51.496;6.410;2023-08-31T00:33:40;33.13;30.70;34.85;;
66335;Laerm;53138;51.496;6.410;2023-08-31T00:33:51;33.16;31.30;35.18;;
66335;Laerm;53138;51.496;6.410;2023-08-31T00:34:01;32.99;31.11;38.27;;
66335;Laerm;53138;51.496;6.410;2023-08-31T00:34:13;32.76;30.85;37.53;;
66335;Laerm;53138;51.496;6.410;2023-08-31T00:34:24;32.95;31.48;34.63;;
66335;Laerm;53138;51.496;6.410;2023-08-31T00:34:35;34.92;32.80;37.34;;
66335;Laerm;53138;51.496;6.410;2023-08-31T00:34:45;33.19;31.64;34.89;;
66335;Laerm;53138;51.496;6.410;2023-08-31T00:34:55;33.15;31.30;34.85;;
66335;Laerm;53138;51.496;6.410;2023-08-31T00:35:05;32.99;31.21;35.17;;
66335;Laerm;53138;51.496;6.410;2023-08-31T00:35:16;33.24;31.27;34.83;;
66335;Laerm;53138;51.496;6.410;2023-08-31T00:35:27;32.83;31.17;39.22;;
66335;Laerm;53138;51.496;6.410;2023-08-31T00:35:37;32.55;30.83;34.26;;
66335;Laerm;53138;51.496;6.410;2023-08-31T00:35:47;32.64;31.05;34.43;;
66335;Laerm;53138;51.496;6.410;2023-08-31T00:36:01;33.47;30.85;47.22;;
66335;Laerm;53138;51.496;6.410;2023-08-31T00:36:11;32.64;30.75;40.46;;
66335;Laerm;53138;51.496;6.410;2023-08-31T00:36:21;32.12;30.67;33.71;;
66335;Laerm;53138;51.496;6.410;2023-08-31T00:36:31;32.15;30.06;34.22;;
66335;Laerm;53138;51.496;6.410;2023-08-31T00:36:42;32.37;30.88;36.13;;
66335;Laerm;53138;51.496;6.410;2023-08-31T00:36:52;32.60;31.04;40.31;;
66335;Laerm;53138;51.496;6.410;2023-08-31T00:37:03;32.53;30.41;35.69;;
66335;Laerm;53138;51.496;6.410;2023-08-31T00:37:13;32.27;31.03;33.85;;
66335;Laerm;53138;51.496;6.410;2023-08-31T00:37:23;32.45;30.87;34.17;;
66335;Laerm;53138;51.496;6.410;2023-08-31T00:37:34;38.96;31.44;54.35;;
66335;Laerm;53138;51.496;6.410;2023-08-31T00:37:44;37.06;32.69;52.34;;
66335;Laerm;53138;51.496;6.410;2023-08-31T00:37:55;32.97;31.28;34.49;;
66335;Laerm;53138;51.496;6.410;2023-08-31T00:38:08;32.32;31.06;34.10;;
66335;Laerm;53138;51.496;6.410;2023-08-31T00:38:18;32.47;30.85;34.48;;
66335;Laerm;53138;51.496;6.410;2023-08-31T00:38:30;32.60;30.79;34.06;;
66335;Laerm;53138;51.496;6.410;2023-08-31T00:38:41;32.06;30.62;34.12;;
66335;Laerm;53138;51.496;6.410;2023-08-31T00:38:51;32.04;30.68;33.60;;
66335;Laerm;53138;51.496;6.410;2023-08-31T00:39:05;32.33;30.83;33.58;;
66335;Laerm;53138;51.496;6.410;2023-08-31T00:39:16;32.13;30.30;34.62;;
66335;Laerm;53138;51.496;6.410;2023-08-31T00:39:31;32.14;30.32;34.16;;
66335;Laerm;53138;51.496;6.410;2023-08-31T00:39:41;32.14;30.01;33.96;;
66335;Laerm;53138;51.496;6.410;2023-08-31T00:39:51;31.95;30.56;33.47;;
66335;Laerm;53138;51.496;6.410;2023-08-31T00:40:02;31.81;30.46;33.41;;
66335;Laerm;53138;51.496;6.410;2023-08-31T00:40:15;32.74;30.75;35.09;;
66335;Laerm;53138;51.496;6.410;2023-08-31T00:40:26;37.59;33.08;42.34;;
66335;Laerm;53138;51.496;6.410;2023-08-31T00:40:39;34.12;32.43;36.95;;
66335;Laerm;53138;51.496;6.410;2023-08-31T00:40:54;34.02;31.53;39.19;;
66335;Laerm;53138;51.496;6.410;2023-08-31T00:41:05;33.41;31.49;35.79;;
66335;Laerm;53138;51.496;6.410;2023-08-31T00:41:15;32.43;30.82;34.17;;
66335;Laerm;53138;51.496;6.410;2023-08-31T00:41:25;32.14;30.59;33.85;;
66335;Laerm;53138;51.496;6.410;2023-08-31T00:41:36;32.35;30.97;38.71;;
66335;Laerm;53138;51.496;6.410;2023-08-31T00:41:46;32.17;30.39;33.76;;
66335;Laerm;53138;51.496;6.410;2023-08-31T00:41:56;32.07;30.53;33.94;;
66335;Laerm;53138;51.496;6.410;2023-08-31T00:42:07;32.29;30.63;33.86;;
66335;Laerm;53138;51.496;6.410;2023-08-31T00:42:18;32.34;30.88;33.94;;
66335;Laerm;53138;51.496;6.410;2023-08-31T00:42:28;32.23;30.60;33.65;;
66335;Laerm;53138;51.496;6.410;2023-08-31T00:42:39;32.25;30.94;34.28;;
66335;Laerm;53138;51.496;6.410;2023-08-31T00:42:50;32.57;30.97;34.07;;
66335;Laerm;53138;51.496;6.410;2023-08-31T00:43:00;32.42;30.60;34.20;;
66335;Laerm;53138;51.496;6.410;2023-08-31T00:43:11;32.46;31.03;34.24;;
66335;Laerm;53138;51.496;6.410;2023-08-31T00:43:21;32.40;30.77;34.56;;
66335;Laerm;53138;51.496;6.410;2023-08-31T00:43:32;32.17;30.22;33.94;;
66335;Laerm;53138;51.496;6.410;2023-08-31T00:43:42;32.18;30.11;33.82;;
66335;Laerm;53138;51.496;6.410;2023-08-31T00:43:52;32.04;30.27;33.51;;
66335;Laerm;53138;51.496;6.410;2023-08-31T00:44:03;32.14;30.55;33.61;;
66335;Laerm;53138;51.496;6.410;2023-08-31T00:44:15;32.45;30.95;34.26;;
66335;Laerm;53138;51.496;6.410;2023-08-31T00:44:25;32.29;30.68;34.23;;
66335;Laerm;53138;51.496;6.410;2023-08-31T00:44:35;31.95;30.46;34.67;;
66335;Laerm;53138;51.496;6.410;2023-08-31T00:44:45;31.92;30.58;33.30;;
66335;Laerm;53138;51.496;6.410;2023-08-31T00:44:58;33.96;30.71;39.14;;
66335;Laerm;53138;51.496;6.410;2023-08-31T00:45:09;37.15;33.54;39.72;;
66335;Laerm;53138;51.496;6.410;2023-08-31T00:45:20;36.88;32.10;40.75;;
66335;Laerm;53138;51.496;6.410;2023-08-31T00:45:32;38.24;33.69;43.78;;
66335;Laerm;53138;51.496;6.410;2023-08-31T00:45:42;38.73;33.18;43.41;;
66335;Laerm;53138;51.496;6.410;2023-08-31T00:45:54;36.41;32.30;42.33;;
66335;Laerm;53138;51.496;6.410;2023-08-31T00:46:07;36.29;32.80;41.53;;
66335;Laerm;53138;51.496;6.410;2023-08-31T00:46:17;35.10;32.37;41.42;;
66335;Laerm;53138;51.496;6.410;2023-08-31T00:46:27;33.76;31.68;37.25;;
66335;Laerm;53138;51.496;6.410;2023-08-31T00:46:37;32.78;31.14;35.42;;
66335;Laerm;53138;51.496;6.410;2023-08-31T00:46:48;32.59;30.80;34.86;;
66335;Laerm;53138;51.496;6.410;2023-08-31T00:46:58;32.49;30.23;41.91;;
66335;Laerm;53138;51.496;6.410;2023-08-31T00:47:08;32.69;30.57;41.74;;
66335;Laerm;53138;51.496;6.410;2023-08-31T00:47:19;32.79;30.89;34.58;;
66335;Laerm;53138;51.496;6.410;2023-08-31T00:47:29;32.79;30.81;41.17;;
66335;Laerm;53138;51.496;6.410;2023-08-31T00:47:39;32.10;30.40;34.30;;
66335;Laerm;53138;51.496;6.410;2023-08-31T00:47:50;32.30;30.21;36.62;;
66335;Laerm;53138;51.496;6.410;2023-08-31T00:48:00;32.78;30.90;35.48;;
66335;Laerm;53138;51.496;6.410;2023-08-31T00:48:11;32.58;31.13;36.81;;
66335;Laerm;53138;51.496;6.410;2023-08-31T00:48:22;32.54;30.65;35.68;;
66335;Laerm;53138;51.496;6.410;2023-08-31T00:48:32;32.50;30.78;40.36;;
66335;Laerm;53138;51.496;6.410;2023-08-31T00:48:42;32.80;31.11;34.67;;
66335;Laerm;53138;51.496;6.410;2023-08-31T00:48:54;32.45;30.64;34.18;;
66335;Laerm;53138;51.496;6.410;2023-08-31T00:49:04;32.37;30.58;34.52;;
66335;Laerm;53138;51.496;6.410;2023-08-31T00:49:14;33.25;31.25;45.26;;
66335;Laerm;53138;51.496;6.410;2023-08-31T00:49:24;32.33;30.27;34.18;;
66335;Laerm;53138;51.496;6.410;2023-08-31T00:49:35;32.18;30.80;33.70;;
66335;Laerm;53138;51.496;6.410;2023-08-31T00:49:55;32.29;29.91;34.47;;
66335;Laerm;53138;51.496;6.410;2023-08-31T00:50:06;32.45;30.73;34.36;;
66335;Laerm;53138;51.496;6.410;2023-08-31T00:50:17;32.40;30.43;34.43;;
66335;Laerm;53138;51.496;6.410;2023-08-31T00:50:29;32.09;30.55;34.19;;
66335;Laerm;53138;51.496;6.410;2023-08-31T00:50:39;32.19;30.59;34.76;;
66335;Laerm;53138;51.496;6.410;2023-08-31T00:50:51;32.20;30.83;34.00;;
66335;Laerm;53138;51.496;6.410;2023-08-31T00:51:01;32.26;30.56;34.04;;
66335;Laerm;53138;51.496;6.410;2023-08-31T00:51:12;32.26;30.81;34.26;;
66335;Laerm;53138;51.496;6.410;2023-08-31T00:51:23;32.16;30.24;34.58;;
66335;Laerm;53138;51.496;6.410;2023-08-31T00:51:34;31.87;29.94;33.90;;
66335;Laerm;53138;51.496;6.410;2023-08-31T00:51:44;32.55;30.87;34.28;;
66335;Laerm;53138;51.496;6.410;2023-08-31T00:51:58;35.79;31.07;41.79;;
66335;Laerm;53138;51.496;6.410;2023-08-31T00:52:09;35.19;32.23;39.58;;
66335;Laerm;53138;51.496;6.410;2023-08-31T00:52:19;34.71;32.27;38.12;;
66335;Laerm;53138;51.496;6.410;2023-08-31T00:52:30;33.69;31.87;36.13;;
66335;Laerm;53138;51.496;6.410;2023-08-31T00:52:43;33.43;31.03;35.78;;
66335;Laerm;53138;51.496;6.410;2023-08-31T00:52:57;34.49;30.62;43.95;;
66335;Laerm;53138;51.496;6.410;2023-08-31T00:53:07;37.39;33.62;42.36;;
66335;Laerm;53138;51.496;6.410;2023-08-31T00:53:18;37.24;34.40;41.42;;
66335;Laerm;53138;51.496;6.410;2023-08-31T00:53:28;42.13;34.37;49.39;;
66335;Laerm;53138;51.496;6.410;2023-08-31T00:53:39;33.15;30.95;35.34;;
66335;Laerm;53138;51.496;6.410;2023-08-31T00:53:52;32.29;30.20;33.74;;
66335;Laerm;53138;51.496;6.410;2023-08-31T00:54:09;36.12;30.57;48.73;;
66335;Laerm;53138;51.496;6.410;2023-08-31T00:54:19;32.33;30.65;34.10;;
66335;Laerm;53138;51.496;6.410;2023-08-31T00:54:31;33.88;31.14;38.42;;
66335;Laerm;53138;51.496;6.410;2023-08-31T00:54:41;37.74;34.57;41.21;;
66335;Laerm;53138;51.496;6.410;2023-08-31T00:54:52;34.94;31.72;38.57;;
66335;Laerm;53138;51.496;6.410;2023-08-31T00:55:03;32.89;31.11;35.67;;
66335;Laerm;53138;51.496;6.410;2023-08-31T00:55:18;33.19;31.47;35.48;;
66335;Laerm;53138;51.496;6.410;2023-08-31T00:55:28;33.82;31.81;41.46;;
66335;Laerm;53138;51.496;6.410;2023-08-31T00:55:38;34.03;31.61;44.54;;
66335;Laerm;53138;51.496;6.410;2023-08-31T00:55:50;33.52;32.14;35.18;;
66335;Laerm;53138;51.496;6.410;2023-08-31T00:56:00;33.36;31.86;34.66;;
66335;Laerm;53138;51.496;6.410;2023-08-31T00:56:10;32.76;31.32;34.38;;
66335;Laerm;53138;51.496;6.410;2023-08-31T00:56:20;32.63;31.05;33.85;;
66335;Laerm;53138;51.496;6.410;2023-08-31T00:56:31;32.65;31.30;36.25;;
66335;Laerm;53138;51.496;6.410;2023-08-31T00:56:41;32.65;30.74;34.77;;
66335;Laerm;53138;51.496;6.410;2023-08-31T00:56:52;33.19;31.45;35.49;;
66335;Laerm;53138;51.496;6.410;2023-08-31T00:57:03;35.54;32.49;43.70;;
66335;Laerm;53138;51.496;6.410;2023-08-31T00:57:13;35.42;32.26;43.00;;
66335;Laerm;53138;51.496;6.410;2023-08-31T00:57:24;35.15;31.87;43.73;;
66335;Laerm;53138;51.496;6.410;2023-08-31T00:57:36;35.12;31.85;44.19;;
66335;Laerm;53138;51.496;6.410;2023-08-31T00:57:46;35.36;31.88;44.71;;
66335;Laerm;53138;51.496;6.410;2023-08-31T00:57:57;33.42;30.90;40.60;;
66335;Laerm;53138;51.496;6.410;2023-08-31T00:58:08;35.64;31.75;46.06;;
66335;Laerm;53138;51.496;6.410;2023-08-31T00:58:18;35.14;31.29;45.35;;
66335;Laerm;53138;51.496;6.410;2023-08-31T00:58:29;34.91;30.93;45.43;;
66335;Laerm;53138;51.496;6.410;2023-08-31T00:58:40;33.65;31.48;39.82;;
66335;Laerm;53138;51.496;6.410;2023-08-31T00:58:50;33.56;31.27;40.71;;
66335;Laerm;53138;51.496;6.410;2023-08-31T00:59:00;33.43;31.14;41.11;;
66335;Laerm;53138;51.496;6.410;2023-08-31T00:59:11;33.12;31.42;38.20;;
66335;Laerm;53138;51.496;6.410;2023-08-31T00:59:21;33.70;31.94;35.21;;
66335;Laerm;53138;51.496;6.410;2023-08-31T00:59:31;33.22;31.42;38.39;;
66335;Laerm;53138;51.496;6.410;2023-08-31T00:59:42;32.35;30.66;34.32;;
66335;Laerm;53138;51.496;6.410;2023-08-31T00:59:52;32.21;30.65;33.37;;
66335;Laerm;53138;51.496;6.410;2023-08-31T01:00:03;32.28;30.37;34.64;;
66335;Laerm;53138;51.496;6.410;2023-08-31T01:00:16;32.34;30.62;34.49;;
66335;Laerm;53138;51.496;6.410;2023-08-31T01:00:33;32.61;31.06;33.91;;
66335;Laerm;53138;51.496;6.410;2023-08-31T01:02:19;33.23;31.24;37.70;;
66335;Laerm;53138;51.496;6.410;2023-08-31T01:03:19;35.86;31.78;38.95;;
66335;Laerm;53138;51.496;6.410;2023-08-31T01:04:05;33.28;31.45;35.05;;